Norient Star — 9HRV9 — position and weather

sailwx.info

Track history (hours):
 
Tides and Currents Weather Stations Pressure Air Temp Water Temp Dewpoint Dewpoint Depression Visibility Wind Speed Wind Dir Waves Ship Positions

Norient Star

Last reported at 2017-Jun-22 00:22 UTC. Time now 2017-Jun-22 16:37 UTC.
Position N 49°07' W 006°47'.

Length 180 m; draft 9.7 m.

Type: Ship. MMSI: 249434000.

Date/timePositionNaut miles runAvg speedWind from/ knotsBaromVisibWave heightAir tempDewpointWater temp
2017-Jun-22 00:22N 49°07' W 006°47'411.9
2017-Jun-21 23:59N 49°08' W 006°40'712.2
2017-Jun-21 23:23N 49°11' W 006°30'512.4
2017-Jun-21 23:00N 49°12' W 006°23'712.6
2017-Jun-21 22:28N 49°15' W 006°14'612.8
2017-Jun-21 22:00N 49°17' W 006°05'913.0
2017-Jun-21 21:20N 49°21' W 005°53'2313.4
2017-Jun-21 19:36N 49°29' W 005°20'113.3
2017-Jun-21 19:30N 49°30' W 005°18'611.8
2017-Jun-21 19:00N 49°32' W 005°10'5 9.8
2017-Jun-21 18:30N 49°34' W 005°03'510.1
2017-Jun-21 18:00N 49°36' W 004°55'612.2
2017-Jun-21 17:30N 49°38' W 004°46'612.0
2017-Jun-21 17:00N 49°39' W 004°38'611.7
2017-Jun-21 16:30N 49°41' W 004°29'611.4
2017-Jun-21 16:00N 49°43' W 004°21'611.1
2017-Jun-21 15:30N 49°44' W 004°12'611.0
2017-Jun-21 15:00N 49°46' W 004°04'611.1
2017-Jun-21 14:30N 49°48' W 003°56'1211.5
2017-Jun-21 13:29N 49°51' W 003°38'612.3
2017-Jun-21 13:00N 49°53' W 003°30'712.9
2017-Jun-21 12:30N 49°55' W 003°20'713.4
2017-Jun-21 12:00N 49°57' W 003°10'713.8
2017-Jun-21 11:31N 49°59' W 003°00'814.5
2017-Jun-21 10:57N 50°01' W 002°48'2015.0
2017-Jun-21 09:38N 50°06' W 002°18'214.6
2017-Jun-21 09:30N 50°07' W 002°16'3512.6
2017-Jun-21 06:42N 50°16' W 001°22'210.7
2017-Jun-21 06:30N 50°17' W 001°19'17 9.9
2017-Jun-21 04:50N 50°21' W 000°54'410.2
2017-Jun-21 04:28N 50°22' W 000°49'610.8
2017-Jun-21 03:55N 50°24' W 000°40'1011.5
2017-Jun-21 03:03N 50°27' W 000°25'112.3
2017-Jun-21 03:00N 50°27' W 000°24'612.7
2017-Jun-21 02:30N 50°28' W 000°14'713.2
2017-Jun-21 02:00N 50°30' W 000°04'713.7
2017-Jun-21 01:30N 50°32' E 000°06'713.9
2017-Jun-21 01:00N 50°34' E 000°17'713.9
2017-Jun-21 00:30N 50°36' E 000°27'713.8
2017-Jun-21 00:00N 50°39' E 000°37'713.4
2017-Jun-20 23:30N 50°42' E 000°46'612.9
2017-Jun-20 23:00N 50°46' E 000°54'612.5
2017-Jun-20 22:30N 50°50' E 001°02'612.0
2017-Jun-20 22:00N 50°54' E 001°09'611.3
2017-Jun-20 21:29N 50°58' E 001°16'510.6
2017-Jun-20 21:00N 51°01' E 001°22'510.2
2017-Jun-20 20:30N 51°05' E 001°28'510.1
2017-Jun-20 20:00N 51°08' E 001°34'510.4
2017-Jun-20 19:30N 51°11' E 001°40'612.1
2017-Jun-20 19:00N 51°16' E 001°47'713.2
2017-Jun-20 18:30N 51°21' E 001°53'713.8
2017-Jun-20 18:01N 51°27' E 001°59'714.2
2017-Jun-20 17:31N 51°32' E 002°07'714.3
2017-Jun-20 17:00N 51°37' E 002°15'714.4
2017-Jun-20 16:31N 51°42' E 002°23'714.4
2017-Jun-20 16:01N 51°48' E 002°31'714.2
2017-Jun-20 15:30N 51°53' E 002°38'713.7
2017-Jun-20 15:00N 51°59' E 002°45'1313.1
2017-Jun-20 14:00N 52°09' E 002°58'612.4
2017-Jun-20 13:29N 52°14' E 003°05'612.0
2017-Jun-20 13:00N 52°18' E 003°11'711.8
2017-Jun-20 12:26N 52°23' E 003°19'511.6
2017-Jun-20 12:00N 52°26' E 003°26'611.7
2017-Jun-20 11:30N 52°29' E 003°34'611.6
2017-Jun-20 11:00N 52°31' E 003°43'611.7
2017-Jun-20 10:31N 52°31' E 003°52'612.1
2017-Jun-20 10:00N 52°31' E 004°02'612.1
2017-Jun-20 09:30N 52°31' E 004°12'611.9
2017-Jun-20 09:00N 52°29' E 004°22'4 8.6
2017-Jun-20 08:30N 52°28' E 004°29'4 8.1
2017-Jun-20 08:00N 52°28' E 004°35'1 1.5
2017-Jun-20 07:31N 52°28' E 004°37'1 1.1
2017-Jun-20 07:01N 52°28' E 004°37'3 5.2
2017-Jun-20 06:30N 52°27' E 004°41'3 5.5
2017-Jun-20 06:00N 52°25' E 004°45'0 0.7
2017-Jun-20 05:30N 52°25' E 004°45'0 0.0
2017-Jun-20 04:57N 52°25' E 004°45'0 0.0
2017-Jun-20 04:30N 52°25' E 004°45'0 0.0
2017-Jun-20 04:00N 52°25' E 004°45'0 0.0
2017-Jun-20 03:30N 52°25' E 004°45'0 0.0
2017-Jun-20 02:57N 52°25' E 004°45'0 0.0
2017-Jun-20 02:30N 52°25' E 004°45'0 0.0
2017-Jun-20 01:57N 52°25' E 004°45'0 0.0
2017-Jun-20 01:30N 52°25' E 004°45'0 0.0
2017-Jun-20 00:57N 52°25' E 004°45'0 0.0
2017-Jun-20 00:30N 52°25' E 004°45'0 0.0
2017-Jun-20 00:00N 52°25' E 004°45'0 0.0
2017-Jun-19 23:27N 52°25' E 004°45'0 0.0
2017-Jun-19 23:00N 52°25' E 004°45'0 0.0
2017-Jun-19 22:30N 52°25' E 004°45'0 0.0
2017-Jun-19 22:00N 52°25' E 004°45'0 0.0
2017-Jun-19 21:24N 52°25' E 004°45'0 0.0
2017-Jun-19 21:00N 52°25' E 004°45'0 0.0
2017-Jun-19 20:30N 52°25' E 004°45'0 0.0
2017-Jun-19 20:00N 52°25' E 004°45'0 0.0
2017-Jun-19 19:27N 52°25' E 004°45'0 0.0
2017-Jun-19 19:00N 52°25' E 004°45'0 0.0
2017-Jun-19 18:30N 52°25' E 004°45'0 0.0
2017-Jun-19 18:00N 52°25' E 004°45'0 0.0
2017-Jun-19 17:27N 52°25' E 004°45'0 0.0
2017-Jun-19 16:58N 52°25' E 004°45'0 0.0
2017-Jun-19 16:25N 52°25' E 004°45'0 0.0
2017-Jun-19 15:58N 52°25' E 004°45'0 0.0
2017-Jun-19 15:28N 52°25' E 004°45'0 0.0
2017-Jun-19 14:58N 52°25' E 004°45'0 0.0
2017-Jun-19 14:28N 52°25' E 004°45'0 0.0
2017-Jun-19 13:22N 52°25' E 004°45'0 0.0
2017-Jun-19 12:58N 52°25' E 004°45'0 0.0
2017-Jun-19 12:25N 52°25' E 004°45'0 0.0
2017-Jun-19 11:58N 52°25' E 004°45'0 0.0
2017-Jun-19 11:28N 52°25' E 004°45'0 0.0
2017-Jun-19 10:58N 52°25' E 004°45'0 0.0
2017-Jun-19 10:28N 52°25' E 004°45'0 0.0
2017-Jun-19 09:58N 52°25' E 004°45'0 0.0
2017-Jun-19 09:25N 52°25' E 004°45'0 0.0
2017-Jun-19 08:58N 52°25' E 004°45'0 0.0
2017-Jun-19 08:28N 52°25' E 004°45'0 0.0
2017-Jun-19 07:55N 52°25' E 004°45'0 0.0
2017-Jun-19 07:28N 52°25' E 004°45'0 0.0
2017-Jun-19 06:58N 52°25' E 004°45'0 0.0
2017-Jun-19 06:22N 52°25' E 004°45'0 0.0
2017-Jun-19 05:55N 52°25' E 004°45'0 0.0
2017-Jun-19 05:28N 52°25' E 004°45'0 0.0
2017-Jun-19 04:55N 52°25' E 004°45'0 0.0
2017-Jun-19 04:28N 52°25' E 004°45'0 0.0
2017-Jun-19 03:58N 52°25' E 004°45'0 0.0
2017-Jun-19 03:30N 52°25' E 004°45'0 0.0
2017-Jun-19 02:56N 52°25' E 004°45'0 0.0
2017-Jun-19 02:29N 52°25' E 004°45'0 0.0
2017-Jun-19 01:59N 52°25' E 004°45'0 0.0
2017-Jun-19 01:26N 52°25' E 004°45'0 0.0
2017-Jun-19 00:59N 52°25' E 004°45'0 0.0
2017-Jun-19 00:29N 52°25' E 004°45'0 0.0
2017-Jun-18 23:59N 52°25' E 004°45'0 0.0
2017-Jun-18 23:29N 52°25' E 004°45'0 0.0
2017-Jun-18 22:53N 52°25' E 004°45'0 0.0
2017-Jun-18 22:29N 52°25' E 004°45'0 0.0
2017-Jun-18 21:59N 52°25' E 004°45'0 0.0
2017-Jun-18 21:29N 52°25' E 004°45'0 0.0
2017-Jun-18 20:59N 52°25' E 004°45'0 0.0
2017-Jun-18 20:29N 52°25' E 004°45'0 0.0
2017-Jun-18 19:59N 52°25' E 004°45'0 0.0
2017-Jun-18 19:29N 52°25' E 004°45'0 0.0
2017-Jun-18 18:59N 52°25' E 004°45'0 0.0
2017-Jun-18 18:26N 52°25' E 004°45'0 0.0
2017-Jun-18 17:56N 52°25' E 004°45'0 0.0
2017-Jun-18 17:29N 52°25' E 004°45'0 0.0
2017-Jun-18 16:59N 52°25' E 004°45'0 0.0
2017-Jun-18 16:23N 52°25' E 004°45'0 0.0
2017-Jun-18 15:59N 52°25' E 004°45'0 0.0
2017-Jun-18 15:29N 52°25' E 004°45'0 0.0
2017-Jun-18 14:56N 52°25' E 004°45'0 0.0
2017-Jun-18 13:59N 52°25' E 004°45'0 0.0
2017-Jun-18 13:26N 52°25' E 004°45'0 0.0
2017-Jun-18 12:56N 52°25' E 004°45'0 0.0
2017-Jun-18 12:26N 52°25' E 004°45'0 0.0
2017-Jun-18 11:50N 52°25' E 004°45'0 0.0
2017-Jun-18 11:14N 52°25' E 004°45'0 0.0
2017-Jun-18 10:59N 52°25' E 004°45'0 0.0
2017-Jun-18 10:26N 52°25' E 004°45'0 0.0
2017-Jun-18 09:59N 52°25' E 004°45'0 0.0
2017-Jun-18 09:29N 52°25' E 004°45'0 0.0
2017-Jun-18 08:59N 52°25' E 004°45'0 0.0
2017-Jun-18 08:29N 52°25' E 004°45'0 0.0
2017-Jun-18 07:59N 52°25' E 004°45'0 0.0
2017-Jun-18 07:23N 52°25' E 004°45'0 0.0
2017-Jun-18 06:56N 52°25' E 004°45'0 0.0
2017-Jun-18 06:29N 52°25' E 004°45'0 0.0
2017-Jun-18 05:59N 52°25' E 004°45'0 0.0
2017-Jun-18 05:23N 52°25' E 004°45'0 0.0
2017-Jun-18 04:59N 52°25' E 004°45'0 0.0
2017-Jun-18 04:29N 52°25' E 004°45'0 0.0
2017-Jun-18 03:53N 52°25' E 004°45'0 0.0
2017-Jun-18 03:26N 52°25' E 004°45'0 0.0
2017-Jun-18 02:59N 52°25' E 004°45'0 0.0
2017-Jun-18 02:26N 52°25' E 004°45'0 0.0
2017-Jun-18 01:56N 52°25' E 004°45'0 0.0
2017-Jun-18 01:26N 52°25' E 004°45'0 0.0
2017-Jun-18 00:56N 52°25' E 004°45'0 0.0
2017-Jun-18 00:23N 52°25' E 004°45'0 0.0
2017-Jun-17 23:59N 52°25' E 004°45'0 0.0
2017-Jun-17 23:29N 52°25' E 004°45'0 0.0
2017-Jun-17 22:56N 52°25' E 004°45'0 0.0
2017-Jun-17 22:29N 52°25' E 004°45'0 0.0
2017-Jun-17 21:50N 52°25' E 004°45'0 0.0
2017-Jun-17 21:17N 52°25' E 004°45'0 0.0
2017-Jun-17 20:59N 52°25' E 004°45'0 0.0
2017-Jun-17 20:26N 52°25' E 004°45'0 0.0
2017-Jun-17 19:59N 52°25' E 004°45'0 0.0
2017-Jun-17 19:29N 52°25' E 004°45'0 0.0
2017-Jun-17 18:56N 52°25' E 004°45'0 0.0
2017-Jun-17 18:29N 52°25' E 004°45'0 0.0
2017-Jun-17 17:59N 52°25' E 004°45'0 0.0
2017-Jun-17 17:29N 52°25' E 004°45'0 0.0
2017-Jun-17 16:59N 52°25' E 004°45'0 0.0
2017-Jun-17 16:29N 52°25' E 004°45'0 0.0
2017-Jun-17 15:59N 52°25' E 004°45'0 0.0
2017-Jun-17 15:29N 52°25' E 004°45'0 0.0
2017-Jun-17 14:59N 52°25' E 004°45'0 0.0
2017-Jun-17 14:29N 52°25' E 004°45'0 0.0
2017-Jun-17 13:29N 52°25' E 004°45'0 0.0
2017-Jun-17 12:53N 52°25' E 004°45'0 0.0
2017-Jun-17 12:29N 52°25' E 004°45'0 0.0
2017-Jun-17 11:59N 52°25' E 004°45'0 0.0
2017-Jun-17 11:26N 52°25' E 004°45'0 0.0
2017-Jun-17 10:59N 52°25' E 004°45'0 0.0
2017-Jun-17 10:29N 52°25' E 004°45'0 0.0
2017-Jun-17 09:56N 52°25' E 004°45'0 0.0
2017-Jun-17 09:29N 52°25' E 004°45'0 0.0
2017-Jun-17 08:59N 52°25' E 004°45'0 0.0
2017-Jun-17 08:26N 52°25' E 004°45'0 0.0
2017-Jun-17 07:59N 52°25' E 004°45'0 0.0
2017-Jun-17 07:29N 52°25' E 004°45'0 0.0
2017-Jun-17 06:59N 52°25' E 004°45'0 0.0
2017-Jun-17 06:29N 52°25' E 004°45'0 0.0
2017-Jun-17 05:53N 52°25' E 004°45'0 0.0
2017-Jun-17 05:26N 52°25' E 004°45'0 0.0
2017-Jun-17 04:56N 52°25' E 004°45'0 0.0
2017-Jun-17 04:26N 52°25' E 004°45'0 0.0
2017-Jun-17 03:59N 52°25' E 004°45'0 0.0
2017-Jun-17 03:29N 52°25' E 004°45'0 0.0
2017-Jun-17 02:59N 52°25' E 004°45'0 0.0
2017-Jun-17 02:29N 52°25' E 004°45'0 0.0
2017-Jun-17 01:56N 52°25' E 004°45'0 0.0
2017-Jun-17 01:29N 52°25' E 004°45'0 0.0
2017-Jun-17 00:59N 52°25' E 004°45'0 0.0
2017-Jun-17 00:29N 52°25' E 004°45'0 0.0
2017-Jun-16 23:56N 52°25' E 004°45'0 0.0
2017-Jun-16 23:26N 52°25' E 004°45'0 0.0
2017-Jun-16 23:00N 52°25' E 004°45'1 1.5
2017-Jun-16 22:30N 52°26' E 004°45'4 7.5
2017-Jun-16 22:00N 52°28' E 004°40'2 4.1
2017-Jun-16 21:31N 52°28' E 004°36'1 1.8
2017-Jun-16 21:00N 52°28' E 004°35'3 5.1
2017-Jun-16 20:31N 52°28' E 004°31'5 9.0
2017-Jun-16 20:00N 52°29' E 004°23'4 7.1
2017-Jun-16 19:30N 52°28' E 004°18'4 8.9
2017-Jun-16 19:00N 52°29' E 004°10'5 9.3
2017-Jun-16 18:31N 52°28' E 004°03'5 9.6
2017-Jun-16 18:00N 52°26' E 003°56'1 1.2
2017-Jun-16 17:17N 52°25' E 003°55'0 0.1
2017-Jun-16 16:59N 52°25' E 003°55'0 0.0
2017-Jun-16 16:29N 52°25' E 003°55'0 0.0
2017-Jun-16 15:56N 52°25' E 003°55'0 0.0
2017-Jun-16 15:29N 52°25' E 003°55'0 0.0
2017-Jun-16 14:59N 52°25' E 003°55'0 0.0
2017-Jun-16 14:29N 52°25' E 003°55'0 0.0
2017-Jun-16 13:23N 52°25' E 003°55'0 0.0
2017-Jun-16 12:59N 52°25' E 003°55'0 0.0
2017-Jun-16 12:26N 52°25' E 003°55'0 0.0
2017-Jun-16 11:29N 52°25' E 003°55'0 0.0
2017-Jun-16 09:56N 52°25' E 003°55'0 0.1
2017-Jun-16 09:26N 52°25' E 003°55'0 0.0
2017-Jun-16 08:59N 52°25' E 003°55'0 0.0
2017-Jun-16 08:29N 52°25' E 003°55'0 0.0
2017-Jun-16 07:59N 52°25' E 003°55'0 0.0
2017-Jun-16 07:29N 52°25' E 003°55'0 0.0
2017-Jun-16 06:59N 52°25' E 003°55'0 0.0
2017-Jun-16 06:26N 52°25' E 003°55'0 0.0
2017-Jun-16 05:41N 52°25' E 003°55'0 0.0
2017-Jun-16 05:29N 52°25' E 003°55'0 0.0
2017-Jun-16 03:47N 52°25' E 003°55'0 0.0
2017-Jun-16 03:29N 52°25' E 003°55'0 0.0
2017-Jun-16 02:59N 52°25' E 003°55'0 0.1
2017-Jun-16 02:26N 52°25' E 003°55'0 0.0
2017-Jun-16 01:47N 52°25' E 003°55'0 0.0
2017-Jun-16 01:29N 52°25' E 003°55'0 0.0
2017-Jun-16 00:59N 52°25' E 003°55'0 0.0
2017-Jun-16 00:29N 52°25' E 003°55'0 0.0
2017-Jun-15 23:56N 52°25' E 003°55'0 0.1
2017-Jun-15 23:29N 52°25' E 003°55'0 0.1
2017-Jun-15 22:59N 52°25' E 003°55'0 0.1
2017-Jun-15 22:26N 52°25' E 003°55'0 0.0
2017-Jun-15 21:53N 52°25' E 003°55'0 0.0
2017-Jun-15 21:29N 52°25' E 003°55'0 0.0
2017-Jun-15 20:59N 52°25' E 003°55'0 0.0
2017-Jun-15 20:29N 52°25' E 003°55'0 0.0
2017-Jun-15 18:41N 52°25' E 003°55'0 0.0
2017-Jun-15 18:29N 52°25' E 003°55'0 0.0
2017-Jun-15 17:59N 52°25' E 003°55'0 0.0
2017-Jun-15 17:29N 52°25' E 003°55'0 0.0
2017-Jun-15 16:59N 52°25' E 003°55'0 0.0
2017-Jun-15 16:29N 52°25' E 003°55'0 0.0
2017-Jun-15 15:56N 52°25' E 003°55'0 0.0
2017-Jun-15 15:29N 52°25' E 003°55'0 0.0
2017-Jun-15 14:59N 52°25' E 003°55'0 0.1
2017-Jun-15 13:59N 52°25' E 003°55'0 0.1
2017-Jun-15 13:26N 52°25' E 003°55'0 0.0
2017-Jun-15 12:59N 52°25' E 003°55'0 0.0
2017-Jun-15 12:29N 52°25' E 003°55'0 0.1
2017-Jun-15 11:59N 52°25' E 003°55'0 0.1
2017-Jun-15 11:29N 52°25' E 003°55'0 0.1
2017-Jun-15 10:50N 52°25' E 003°55'0 0.0
2017-Jun-15 10:29N 52°25' E 003°55'0 0.1
2017-Jun-15 09:50N 52°25' E 003°55'0 0.0
2017-Jun-15 08:59N 52°25' E 003°55'0 0.0
2017-Jun-15 08:29N 52°25' E 003°55'0 0.0
2017-Jun-15 07:50N 52°25' E 003°55'0 0.0
2017-Jun-15 07:29N 52°25' E 003°55'0 0.0
2017-Jun-15 06:59N 52°25' E 003°55'0 0.0
2017-Jun-15 06:26N 52°25' E 003°55'0 0.0
2017-Jun-15 05:32N 52°25' E 003°55'0 0.0
2017-Jun-15 05:29N 52°25' E 003°55'0 0.0
2017-Jun-15 04:59N 52°25' E 003°55'0 0.1
2017-Jun-15 04:29N 52°25' E 003°55'0 0.1
2017-Jun-15 03:53N 52°25' E 003°55'0 0.1
2017-Jun-15 03:26N 52°25' E 003°55'0 0.1
2017-Jun-15 02:59N 52°25' E 003°55'0 0.1
2017-Jun-15 02:29N 52°25' E 003°55'0 0.0
2017-Jun-15 01:56N 52°25' E 003°55'0 0.0
2017-Jun-15 01:29N 52°25' E 003°55'0 0.0
2017-Jun-15 00:56N 52°25' E 003°55'0 0.0
2017-Jun-15 00:29N 52°25' E 003°55'0 0.0
2017-Jun-14 23:56N 52°25' E 003°55'0 0.0
2017-Jun-14 23:26N 52°25' E 003°55'0 0.0
2017-Jun-14 22:59N 52°25' E 003°55'0 0.0
2017-Jun-14 22:29N 52°25' E 003°55'0 0.0
2017-Jun-14 21:53N 52°25' E 003°55'0 0.1
2017-Jun-14 21:14N 52°25' E 003°55'0 0.3
2017-Jun-14 20:59N 52°25' E 003°55'0 0.1
2017-Jun-14 20:29N 52°25' E 003°55'0 0.0
2017-Jun-14 19:32N 52°25' E 003°55'0 0.0
2017-Jun-14 19:23N 52°25' E 003°55'0 0.0
2017-Jun-14 18:53N 52°25' E 003°55'0 0.0
2017-Jun-14 18:29N 52°25' E 003°55'0 0.0
2017-Jun-14 17:53N 52°25' E 003°55'0 0.0
2017-Jun-14 17:29N 52°25' E 003°55'0 0.1
2017-Jun-14 16:59N 52°25' E 003°55'0 0.3
2017-Jun-14 16:29N 52°25' E 003°55'0 0.3
2017-Jun-14 15:59N 52°25' E 003°55'0 0.0
2017-Jun-14 15:29N 52°25' E 003°55'0 0.0
2017-Jun-14 14:59N 52°25' E 003°55'0 0.0
2017-Jun-14 13:59N 52°25' E 003°55'0 0.0
2017-Jun-14 13:29N 52°25' E 003°55'0 0.0
2017-Jun-14 12:59N 52°25' E 003°55'0 0.0
2017-Jun-14 12:29N 52°25' E 003°55'0 0.0
2017-Jun-14 11:59N 52°25' E 003°55'0 0.0
2017-Jun-14 11:26N 52°25' E 003°55'0 0.0
2017-Jun-14 10:59N 52°25' E 003°55'0 0.0
2017-Jun-14 10:29N 52°25' E 003°55'0 0.0
2017-Jun-14 09:59N 52°25' E 003°55'0 0.1
2017-Jun-14 09:29N 52°25' E 003°55'0 0.1
2017-Jun-14 08:02N 52°25' E 003°55'0 0.1
2017-Jun-14 07:59N 52°25' E 003°55'0 0.0
2017-Jun-14 07:29N 52°25' E 003°55'0 0.0
2017-Jun-14 06:56N 52°25' E 003°55'0 0.0
2017-Jun-14 06:14N 52°25' E 003°55'0 0.0
2017-Jun-14 05:59N 52°25' E 003°55'0 0.0
2017-Jun-14 05:29N 52°25' E 003°55'0 0.0
2017-Jun-14 04:59N 52°25' E 003°55'0 0.0
2017-Jun-14 04:11N 52°25' E 003°55'0 0.0
2017-Jun-14 03:59N 52°25' E 003°55'0 0.1
2017-Jun-14 03:26N 52°25' E 003°55'0 0.2
2017-Jun-14 02:59N 52°25' E 003°55'0 0.1
2017-Jun-14 02:20N 52°25' E 003°55'0 0.0
2017-Jun-14 01:59N 52°25' E 003°55'0 0.0
2017-Jun-14 01:26N 52°25' E 003°55'0 0.0
2017-Jun-14 00:53N 52°25' E 003°55'0 0.0
2017-Jun-14 00:14N 52°25' E 003°55'0 0.0
2017-Jun-13 23:59N 52°25' E 003°55'0 0.0
2017-Jun-13 23:29N 52°25' E 003°55'0 0.0
2017-Jun-13 22:59N 52°25' E 003°55'0 0.0
2017-Jun-13 22:29N 52°25' E 003°55'0 0.1
2017-Jun-13 21:56N 52°25' E 003°55'0 0.1
2017-Jun-13 21:23N 52°25' E 003°55'0 0.1
2017-Jun-13 20:53N 52°25' E 003°55'0 0.1
2017-Jun-13 20:29N 52°25' E 003°55'0 0.1
2017-Jun-13 19:59N 52°25' E 003°55'0 0.0
2017-Jun-13 19:29N 52°25' E 003°55'0 0.0
2017-Jun-13 18:53N 52°25' E 003°55'0 0.0
2017-Jun-13 18:29N 52°25' E 003°55'0 0.0
2017-Jun-13 17:59N 52°25' E 003°55'0 0.0
2017-Jun-13 17:26N 52°25' E 003°55'0 0.0
2017-Jun-13 16:59N 52°25' E 003°55'0 0.0
2017-Jun-13 16:29N 52°25' E 003°55'0 0.1
2017-Jun-13 15:56N 52°25' E 003°55'0 0.1
2017-Jun-13 15:29N 52°25' E 003°55'0 0.1
2017-Jun-13 14:59N 52°25' E 003°55'0 0.1
2017-Jun-13 14:26N 52°25' E 003°55'0 0.1
2017-Jun-13 13:29N 52°25' E 003°55'0 0.0
2017-Jun-13 12:41N 52°25' E 003°55'0 0.0
2017-Jun-13 12:29N 52°25' E 003°55'0 0.0
2017-Jun-13 11:59N 52°25' E 003°55'0 0.0
2017-Jun-13 10:44N 52°25' E 003°55'0 0.1
2017-Jun-13 10:14N 52°25' E 003°55'0 0.2
2017-Jun-13 09:59N 52°25' E 003°55'14 8.9
2017-Jun-13 08:22N 52°23' E 003°32'512.4
2017-Jun-13 07:59N 52°19' E 003°27'612.7
2017-Jun-13 07:29N 52°15' E 003°19'913.0
2017-Jun-13 06:47N 52°09' E 003°07'613.6
2017-Jun-13 06:18N 52°04' E 003°01'613.6
2017-Jun-13 05:50N 51°59' E 002°54'514.0
2017-Jun-13 05:28N 51°55' E 002°49'714.2
2017-Jun-13 04:59N 51°50' E 002°42'714.3
2017-Jun-13 04:31N 51°45' E 002°35'714.4
2017-Jun-13 04:00N 51°39' E 002°28'714.4
2017-Jun-13 03:31N 51°33' E 002°21'714.5
2017-Jun-13 03:01N 51°28' E 002°14'714.4
2017-Jun-13 02:31N 51°21' E 002°09'714.3
2017-Jun-13 02:01N 51°14' E 002°05'714.7
2017-Jun-13 01:30N 51°10' E 001°55'815.0
2017-Jun-13 01:01N 51°06' E 001°45'714.9
2017-Jun-13 00:30N 51°01' E 001°36'714.4
2017-Jun-13 00:00N 50°56' E 001°28'713.4
2017-Jun-12 23:31N 50°49' E 001°25'713.2
2017-Jun-12 22:58N 50°43' E 001°21'613.2
2017-Jun-12 22:29N 50°38' E 001°14'3213.1
2017-Jun-12 20:03N 50°24' E 000°29'112.8
2017-Jun-12 20:00N 50°24' E 000°28'1012.5
2017-Jun-12 19:12N 50°21' E 000°13'212.1
2017-Jun-12 19:00N 50°20' E 000°10'612.0
2017-Jun-12 18:31N 50°19' E 000°01'611.8
2017-Jun-12 18:00N 50°17' W 000°08'611.5
2017-Jun-12 17:30N 50°16' W 000°17'611.1
2017-Jun-12 17:00N 50°14' W 000°25'510.8
2017-Jun-12 16:30N 50°14' W 000°34'610.7
2017-Jun-12 15:58N 50°13' W 000°43'510.4
2017-Jun-12 15:30N 50°11' W 000°50'510.6
2017-Jun-12 15:00N 50°10' W 000°58'510.8
2017-Jun-12 14:30N 50°08' W 001°05'1111.3
2017-Jun-12 13:30N 50°05' W 001°23'612.3
2017-Jun-12 13:00N 50°03' W 001°32'613.0
2017-Jun-12 12:30N 50°01' W 001°41'713.8
2017-Jun-12 12:00N 49°60' W 001°52'714.5
2017-Jun-12 11:31N 49°58' W 002°03'2214.9
2017-Jun-12 10:04N 49°53' W 002°35'614.9
2017-Jun-12 09:39N 49°51' W 002°44'214.8
2017-Jun-12 09:30N 49°50' W 002°48'1614.5
2017-Jun-12 08:24N 49°43' W 003°09'614.3
2017-Jun-12 08:00N 49°40' W 003°17'8913.5
2017-Jun-12 01:23N 48°56' W 005°16'410.9
2017-Jun-12 01:00N 48°54' W 005°21'510.7
2017-Jun-12 00:29N 48°51' W 005°29'  
Track history (hours):
 
Tides and Currents Weather Stations Pressure Air Temp Water Temp Dewpoint Dewpoint Depression Visibility Wind Speed Wind Dir Waves Ship Positions

Norient Star

Last reported at 2017-Jun-22 00:22 UTC. Time now 2017-Jun-22 16:37 UTC.
Position N 49°07' W 006°47'.

Length 180 m; draft 9.7 m.

Type: Ship. MMSI: 249434000.

Date/timePositionNaut miles runAvg speedWind from/ knotsBaromVisibWave heightAir tempDewpointWater temp
2017-Jun-22 00:22N 49°07' W 006°47'411.9
2017-Jun-21 23:59N 49°08' W 006°40'712.2
2017-Jun-21 23:23N 49°11' W 006°30'512.4
2017-Jun-21 23:00N 49°12' W 006°23'712.6
2017-Jun-21 22:28N 49°15' W 006°14'612.8
2017-Jun-21 22:00N 49°17' W 006°05'913.0
2017-Jun-21 21:20N 49°21' W 005°53'2313.4
2017-Jun-21 19:36N 49°29' W 005°20'113.3
2017-Jun-21 19:30N 49°30' W 005°18'611.8
2017-Jun-21 19:00N 49°32' W 005°10'5 9.8
2017-Jun-21 18:30N 49°34' W 005°03'510.1
2017-Jun-21 18:00N 49°36' W 004°55'612.2
2017-Jun-21 17:30N 49°38' W 004°46'612.0
2017-Jun-21 17:00N 49°39' W 004°38'611.7
2017-Jun-21 16:30N 49°41' W 004°29'611.4
2017-Jun-21 16:00N 49°43' W 004°21'611.1
2017-Jun-21 15:30N 49°44' W 004°12'611.0
2017-Jun-21 15:00N 49°46' W 004°04'611.1
2017-Jun-21 14:30N 49°48' W 003°56'1211.5
2017-Jun-21 13:29N 49°51' W 003°38'612.3
2017-Jun-21 13:00N 49°53' W 003°30'712.9
2017-Jun-21 12:30N 49°55' W 003°20'713.4
2017-Jun-21 12:00N 49°57' W 003°10'713.8
2017-Jun-21 11:31N 49°59' W 003°00'814.5
2017-Jun-21 10:57N 50°01' W 002°48'2015.0
2017-Jun-21 09:38N 50°06' W 002°18'214.6
2017-Jun-21 09:30N 50°07' W 002°16'3512.6
2017-Jun-21 06:42N 50°16' W 001°22'210.7
2017-Jun-21 06:30N 50°17' W 001°19'17 9.9
2017-Jun-21 04:50N 50°21' W 000°54'410.2
2017-Jun-21 04:28N 50°22' W 000°49'610.8
2017-Jun-21 03:55N 50°24' W 000°40'1011.5
2017-Jun-21 03:03N 50°27' W 000°25'112.3
2017-Jun-21 03:00N 50°27' W 000°24'612.7
2017-Jun-21 02:30N 50°28' W 000°14'713.2
2017-Jun-21 02:00N 50°30' W 000°04'713.7
2017-Jun-21 01:30N 50°32' E 000°06'713.9
2017-Jun-21 01:00N 50°34' E 000°17'713.9
2017-Jun-21 00:30N 50°36' E 000°27'713.8
2017-Jun-21 00:00N 50°39' E 000°37'713.4
2017-Jun-20 23:30N 50°42' E 000°46'612.9
2017-Jun-20 23:00N 50°46' E 000°54'612.5
2017-Jun-20 22:30N 50°50' E 001°02'612.0
2017-Jun-20 22:00N 50°54' E 001°09'611.3
2017-Jun-20 21:29N 50°58' E 001°16'510.6
2017-Jun-20 21:00N 51°01' E 001°22'510.2
2017-Jun-20 20:30N 51°05' E 001°28'510.1
2017-Jun-20 20:00N 51°08' E 001°34'510.4
2017-Jun-20 19:30N 51°11' E 001°40'612.1
2017-Jun-20 19:00N 51°16' E 001°47'713.2
2017-Jun-20 18:30N 51°21' E 001°53'713.8
2017-Jun-20 18:01N 51°27' E 001°59'714.2
2017-Jun-20 17:31N 51°32' E 002°07'714.3
2017-Jun-20 17:00N 51°37' E 002°15'714.4
2017-Jun-20 16:31N 51°42' E 002°23'714.4
2017-Jun-20 16:01N 51°48' E 002°31'714.2
2017-Jun-20 15:30N 51°53' E 002°38'713.7
2017-Jun-20 15:00N 51°59' E 002°45'1313.1
2017-Jun-20 14:00N 52°09' E 002°58'612.4
2017-Jun-20 13:29N 52°14' E 003°05'612.0
2017-Jun-20 13:00N 52°18' E 003°11'711.8
2017-Jun-20 12:26N 52°23' E 003°19'511.6
2017-Jun-20 12:00N 52°26' E 003°26'611.7
2017-Jun-20 11:30N 52°29' E 003°34'611.6
2017-Jun-20 11:00N 52°31' E 003°43'611.7
2017-Jun-20 10:31N 52°31' E 003°52'612.1
2017-Jun-20 10:00N 52°31' E 004°02'612.1
2017-Jun-20 09:30N 52°31' E 004°12'611.9
2017-Jun-20 09:00N 52°29' E 004°22'4 8.6
2017-Jun-20 08:30N 52°28' E 004°29'4 8.1
2017-Jun-20 08:00N 52°28' E 004°35'1 1.5
2017-Jun-20 07:31N 52°28' E 004°37'1 1.1
2017-Jun-20 07:01N 52°28' E 004°37'3 5.2
2017-Jun-20 06:30N 52°27' E 004°41'3 5.5
2017-Jun-20 06:00N 52°25' E 004°45'0 0.7
2017-Jun-20 05:30N 52°25' E 004°45'0 0.0
2017-Jun-20 04:57N 52°25' E 004°45'0 0.0
2017-Jun-20 04:30N 52°25' E 004°45'0 0.0
2017-Jun-20 04:00N 52°25' E 004°45'0 0.0
2017-Jun-20 03:30N 52°25' E 004°45'0 0.0
2017-Jun-20 02:57N 52°25' E 004°45'0 0.0
2017-Jun-20 02:30N 52°25' E 004°45'0 0.0
2017-Jun-20 01:57N 52°25' E 004°45'0 0.0
2017-Jun-20 01:30N 52°25' E 004°45'0 0.0
2017-Jun-20 00:57N 52°25' E 004°45'0 0.0
2017-Jun-20 00:30N 52°25' E 004°45'0 0.0
2017-Jun-20 00:00N 52°25' E 004°45'0 0.0
2017-Jun-19 23:27N 52°25' E 004°45'0 0.0
2017-Jun-19 23:00N 52°25' E 004°45'0 0.0
2017-Jun-19 22:30N 52°25' E 004°45'0 0.0
2017-Jun-19 22:00N 52°25' E 004°45'0 0.0
2017-Jun-19 21:24N 52°25' E 004°45'0 0.0
2017-Jun-19 21:00N 52°25' E 004°45'0 0.0
2017-Jun-19 20:30N 52°25' E 004°45'0 0.0
2017-Jun-19 20:00N 52°25' E 004°45'0 0.0
2017-Jun-19 19:27N 52°25' E 004°45'0 0.0
2017-Jun-19 19:00N 52°25' E 004°45'0 0.0
2017-Jun-19 18:30N 52°25' E 004°45'0 0.0
2017-Jun-19 18:00N 52°25' E 004°45'0 0.0
2017-Jun-19 17:27N 52°25' E 004°45'0 0.0
2017-Jun-19 16:58N 52°25' E 004°45'0 0.0
2017-Jun-19 16:25N 52°25' E 004°45'0 0.0
2017-Jun-19 15:58N 52°25' E 004°45'0 0.0
2017-Jun-19 15:28N 52°25' E 004°45'0 0.0
2017-Jun-19 14:58N 52°25' E 004°45'0 0.0
2017-Jun-19 14:28N 52°25' E 004°45'0 0.0
2017-Jun-19 13:22N 52°25' E 004°45'0 0.0
2017-Jun-19 12:58N 52°25' E 004°45'0 0.0
2017-Jun-19 12:25N 52°25' E 004°45'0 0.0
2017-Jun-19 11:58N 52°25' E 004°45'0 0.0
2017-Jun-19 11:28N 52°25' E 004°45'0 0.0
2017-Jun-19 10:58N 52°25' E 004°45'0 0.0
2017-Jun-19 10:28N 52°25' E 004°45'0 0.0
2017-Jun-19 09:58N 52°25' E 004°45'0 0.0
2017-Jun-19 09:25N 52°25' E 004°45'0 0.0
2017-Jun-19 08:58N 52°25' E 004°45'0 0.0
2017-Jun-19 08:28N 52°25' E 004°45'0 0.0
2017-Jun-19 07:55N 52°25' E 004°45'0 0.0
2017-Jun-19 07:28N 52°25' E 004°45'0 0.0
2017-Jun-19 06:58N 52°25' E 004°45'0 0.0
2017-Jun-19 06:22N 52°25' E 004°45'0 0.0
2017-Jun-19 05:55N 52°25' E 004°45'0 0.0
2017-Jun-19 05:28N 52°25' E 004°45'0 0.0
2017-Jun-19 04:55N 52°25' E 004°45'0 0.0
2017-Jun-19 04:28N 52°25' E 004°45'0 0.0
2017-Jun-19 03:58N 52°25' E 004°45'0 0.0
2017-Jun-19 03:30N 52°25' E 004°45'0 0.0
2017-Jun-19 02:56N 52°25' E 004°45'0 0.0
2017-Jun-19 02:29N 52°25' E 004°45'0 0.0
2017-Jun-19 01:59N 52°25' E 004°45'0 0.0
2017-Jun-19 01:26N 52°25' E 004°45'0 0.0
2017-Jun-19 00:59N 52°25' E 004°45'0 0.0
2017-Jun-19 00:29N 52°25' E 004°45'0 0.0
2017-Jun-18 23:59N 52°25' E 004°45'0 0.0
2017-Jun-18 23:29N 52°25' E 004°45'0 0.0
2017-Jun-18 22:53N 52°25' E 004°45'0 0.0
2017-Jun-18 22:29N 52°25' E 004°45'0 0.0
2017-Jun-18 21:59N 52°25' E 004°45'0 0.0
2017-Jun-18 21:29N 52°25' E 004°45'0 0.0
2017-Jun-18 20:59N 52°25' E 004°45'0 0.0
2017-Jun-18 20:29N 52°25' E 004°45'0 0.0
2017-Jun-18 19:59N 52°25' E 004°45'0 0.0
2017-Jun-18 19:29N 52°25' E 004°45'0 0.0
2017-Jun-18 18:59N 52°25' E 004°45'0 0.0
2017-Jun-18 18:26N 52°25' E 004°45'0 0.0
2017-Jun-18 17:56N 52°25' E 004°45'0 0.0
2017-Jun-18 17:29N 52°25' E 004°45'0 0.0
2017-Jun-18 16:59N 52°25' E 004°45'0 0.0
2017-Jun-18 16:23N 52°25' E 004°45'0 0.0
2017-Jun-18 15:59N 52°25' E 004°45'0 0.0
2017-Jun-18 15:29N 52°25' E 004°45'0 0.0
2017-Jun-18 14:56N 52°25' E 004°45'0 0.0
2017-Jun-18 13:59N 52°25' E 004°45'0 0.0
2017-Jun-18 13:26N 52°25' E 004°45'0 0.0
2017-Jun-18 12:56N 52°25' E 004°45'0 0.0
2017-Jun-18 12:26N 52°25' E 004°45'0 0.0
2017-Jun-18 11:50N 52°25' E 004°45'0 0.0
2017-Jun-18 11:14N 52°25' E 004°45'0 0.0
2017-Jun-18 10:59N 52°25' E 004°45'0 0.0
2017-Jun-18 10:26N 52°25' E 004°45'0 0.0
2017-Jun-18 09:59N 52°25' E 004°45'0 0.0
2017-Jun-18 09:29N 52°25' E 004°45'0 0.0
2017-Jun-18 08:59N 52°25' E 004°45'0 0.0
2017-Jun-18 08:29N 52°25' E 004°45'0 0.0
2017-Jun-18 07:59N 52°25' E 004°45'0 0.0
2017-Jun-18 07:23N 52°25' E 004°45'0 0.0
2017-Jun-18 06:56N 52°25' E 004°45'0 0.0
2017-Jun-18 06:29N 52°25' E 004°45'0 0.0
2017-Jun-18 05:59N 52°25' E 004°45'0 0.0
2017-Jun-18 05:23N 52°25' E 004°45'0 0.0
2017-Jun-18 04:59N 52°25' E 004°45'0 0.0
2017-Jun-18 04:29N 52°25' E 004°45'0 0.0
2017-Jun-18 03:53N 52°25' E 004°45'0 0.0
2017-Jun-18 03:26N 52°25' E 004°45'0 0.0
2017-Jun-18 02:59N 52°25' E 004°45'0 0.0
2017-Jun-18 02:26N 52°25' E 004°45'0 0.0
2017-Jun-18 01:56N 52°25' E 004°45'0 0.0
2017-Jun-18 01:26N 52°25' E 004°45'0 0.0
2017-Jun-18 00:56N 52°25' E 004°45'0 0.0
2017-Jun-18 00:23N 52°25' E 004°45'0 0.0
2017-Jun-17 23:59N 52°25' E 004°45'0 0.0
2017-Jun-17 23:29N 52°25' E 004°45'0 0.0
2017-Jun-17 22:56N 52°25' E 004°45'0 0.0
2017-Jun-17 22:29N 52°25' E 004°45'0 0.0
2017-Jun-17 21:50N 52°25' E 004°45'0 0.0
2017-Jun-17 21:17N 52°25' E 004°45'0 0.0
2017-Jun-17 20:59N 52°25' E 004°45'0 0.0
2017-Jun-17 20:26N 52°25' E 004°45'0 0.0
2017-Jun-17 19:59N 52°25' E 004°45'0 0.0
2017-Jun-17 19:29N 52°25' E 004°45'0 0.0
2017-Jun-17 18:56N 52°25' E 004°45'0 0.0
2017-Jun-17 18:29N 52°25' E 004°45'0 0.0
2017-Jun-17 17:59N 52°25' E 004°45'0 0.0
2017-Jun-17 17:29N 52°25' E 004°45'0 0.0
2017-Jun-17 16:59N 52°25' E 004°45'0 0.0
2017-Jun-17 16:29N 52°25' E 004°45'0 0.0
2017-Jun-17 15:59N 52°25' E 004°45'0 0.0
2017-Jun-17 15:29N 52°25' E 004°45'0 0.0
2017-Jun-17 14:59N 52°25' E 004°45'0 0.0
2017-Jun-17 14:29N 52°25' E 004°45'0 0.0
2017-Jun-17 13:29N 52°25' E 004°45'0 0.0
2017-Jun-17 12:53N 52°25' E 004°45'0 0.0
2017-Jun-17 12:29N 52°25' E 004°45'0 0.0
2017-Jun-17 11:59N 52°25' E 004°45'0 0.0
2017-Jun-17 11:26N 52°25' E 004°45'0 0.0
2017-Jun-17 10:59N 52°25' E 004°45'0 0.0
2017-Jun-17 10:29N 52°25' E 004°45'0 0.0
2017-Jun-17 09:56N 52°25' E 004°45'0 0.0
2017-Jun-17 09:29N 52°25' E 004°45'0 0.0
2017-Jun-17 08:59N 52°25' E 004°45'0 0.0
2017-Jun-17 08:26N 52°25' E 004°45'0 0.0
2017-Jun-17 07:59N 52°25' E 004°45'0 0.0
2017-Jun-17 07:29N 52°25' E 004°45'0 0.0
2017-Jun-17 06:59N 52°25' E 004°45'0 0.0
2017-Jun-17 06:29N 52°25' E 004°45'0 0.0
2017-Jun-17 05:53N 52°25' E 004°45'0 0.0
2017-Jun-17 05:26N 52°25' E 004°45'0 0.0
2017-Jun-17 04:56N 52°25' E 004°45'0 0.0
2017-Jun-17 04:26N 52°25' E 004°45'0 0.0
2017-Jun-17 03:59N 52°25' E 004°45'0 0.0
2017-Jun-17 03:29N 52°25' E 004°45'0 0.0
2017-Jun-17 02:59N 52°25' E 004°45'0 0.0
2017-Jun-17 02:29N 52°25' E 004°45'0 0.0
2017-Jun-17 01:56N 52°25' E 004°45'0 0.0
2017-Jun-17 01:29N 52°25' E 004°45'0 0.0
2017-Jun-17 00:59N 52°25' E 004°45'0 0.0
2017-Jun-17 00:29N 52°25' E 004°45'0 0.0
2017-Jun-16 23:56N 52°25' E 004°45'0 0.0
2017-Jun-16 23:26N 52°25' E 004°45'0 0.0
2017-Jun-16 23:00N 52°25' E 004°45'1 1.5
2017-Jun-16 22:30N 52°26' E 004°45'4 7.5
2017-Jun-16 22:00N 52°28' E 004°40'2 4.1
2017-Jun-16 21:31N 52°28' E 004°36'1 1.8
2017-Jun-16 21:00N 52°28' E 004°35'3 5.1
2017-Jun-16 20:31N 52°28' E 004°31'5 9.0
2017-Jun-16 20:00N 52°29' E 004°23'4 7.1
2017-Jun-16 19:30N 52°28' E 004°18'4 8.9
2017-Jun-16 19:00N 52°29' E 004°10'5 9.3
2017-Jun-16 18:31N 52°28' E 004°03'5 9.6
2017-Jun-16 18:00N 52°26' E 003°56'1 1.2
2017-Jun-16 17:17N 52°25' E 003°55'0 0.1
2017-Jun-16 16:59N 52°25' E 003°55'0 0.0
2017-Jun-16 16:29N 52°25' E 003°55'0 0.0
2017-Jun-16 15:56N 52°25' E 003°55'0 0.0
2017-Jun-16 15:29N 52°25' E 003°55'0 0.0
2017-Jun-16 14:59N 52°25' E 003°55'0 0.0
2017-Jun-16 14:29N 52°25' E 003°55'0 0.0
2017-Jun-16 13:23N 52°25' E 003°55'0 0.0
2017-Jun-16 12:59N 52°25' E 003°55'0 0.0
2017-Jun-16 12:26N 52°25' E 003°55'0 0.0
2017-Jun-16 11:29N 52°25' E 003°55'0 0.0
2017-Jun-16 09:56N 52°25' E 003°55'0 0.1
2017-Jun-16 09:26N 52°25' E 003°55'0 0.0
2017-Jun-16 08:59N 52°25' E 003°55'0 0.0
2017-Jun-16 08:29N 52°25' E 003°55'0 0.0
2017-Jun-16 07:59N 52°25' E 003°55'0 0.0
2017-Jun-16 07:29N 52°25' E 003°55'0 0.0
2017-Jun-16 06:59N 52°25' E 003°55'0 0.0
2017-Jun-16 06:26N 52°25' E 003°55'0 0.0
2017-Jun-16 05:41N 52°25' E 003°55'0 0.0
2017-Jun-16 05:29N 52°25' E 003°55'0 0.0
2017-Jun-16 03:47N 52°25' E 003°55'0 0.0
2017-Jun-16 03:29N 52°25' E 003°55'0 0.0
2017-Jun-16 02:59N 52°25' E 003°55'0 0.1
2017-Jun-16 02:26N 52°25' E 003°55'0 0.0
2017-Jun-16 01:47N 52°25' E 003°55'0 0.0
2017-Jun-16 01:29N 52°25' E 003°55'0 0.0
2017-Jun-16 00:59N 52°25' E 003°55'0 0.0
2017-Jun-16 00:29N 52°25' E 003°55'0 0.0
2017-Jun-15 23:56N 52°25' E 003°55'0 0.1
2017-Jun-15 23:29N 52°25' E 003°55'0 0.1
2017-Jun-15 22:59N 52°25' E 003°55'0 0.1
2017-Jun-15 22:26N 52°25' E 003°55'0 0.0
2017-Jun-15 21:53N 52°25' E 003°55'0 0.0
2017-Jun-15 21:29N 52°25' E 003°55'0 0.0
2017-Jun-15 20:59N 52°25' E 003°55'0 0.0
2017-Jun-15 20:29N 52°25' E 003°55'0 0.0
2017-Jun-15 18:41N 52°25' E 003°55'0 0.0
2017-Jun-15 18:29N 52°25' E 003°55'0 0.0
2017-Jun-15 17:59N 52°25' E 003°55'0 0.0
2017-Jun-15 17:29N 52°25' E 003°55'0 0.0
2017-Jun-15 16:59N 52°25' E 003°55'0 0.0
2017-Jun-15 16:29N 52°25' E 003°55'0 0.0
2017-Jun-15 15:56N 52°25' E 003°55'0 0.0
2017-Jun-15 15:29N 52°25' E 003°55'0 0.0
2017-Jun-15 14:59N 52°25' E 003°55'0 0.1
2017-Jun-15 13:59N 52°25' E 003°55'0 0.1
2017-Jun-15 13:26N 52°25' E 003°55'0 0.0
2017-Jun-15 12:59N 52°25' E 003°55'0 0.0
2017-Jun-15 12:29N 52°25' E 003°55'0 0.1
2017-Jun-15 11:59N 52°25' E 003°55'0 0.1
2017-Jun-15 11:29N 52°25' E 003°55'0 0.1
2017-Jun-15 10:50N 52°25' E 003°55'0 0.0
2017-Jun-15 10:29N 52°25' E 003°55'0 0.1
2017-Jun-15 09:50N 52°25' E 003°55'0 0.0
2017-Jun-15 08:59N 52°25' E 003°55'0 0.0
2017-Jun-15 08:29N 52°25' E 003°55'0 0.0
2017-Jun-15 07:50N 52°25' E 003°55'0 0.0
2017-Jun-15 07:29N 52°25' E 003°55'0 0.0
2017-Jun-15 06:59N 52°25' E 003°55'0 0.0
2017-Jun-15 06:26N 52°25' E 003°55'0 0.0
2017-Jun-15 05:32N 52°25' E 003°55'0 0.0
2017-Jun-15 05:29N 52°25' E 003°55'0 0.0
2017-Jun-15 04:59N 52°25' E 003°55'0 0.1
2017-Jun-15 04:29N 52°25' E 003°55'0 0.1
2017-Jun-15 03:53N 52°25' E 003°55'0 0.1
2017-Jun-15 03:26N 52°25' E 003°55'0 0.1
2017-Jun-15 02:59N 52°25' E 003°55'0 0.1
2017-Jun-15 02:29N 52°25' E 003°55'0 0.0
2017-Jun-15 01:56N 52°25' E 003°55'0 0.0
2017-Jun-15 01:29N 52°25' E 003°55'0 0.0
2017-Jun-15 00:56N 52°25' E 003°55'0 0.0
2017-Jun-15 00:29N 52°25' E 003°55'0 0.0
2017-Jun-14 23:56N 52°25' E 003°55'0 0.0
2017-Jun-14 23:26N 52°25' E 003°55'0 0.0
2017-Jun-14 22:59N 52°25' E 003°55'0 0.0
2017-Jun-14 22:29N 52°25' E 003°55'0 0.0
2017-Jun-14 21:53N 52°25' E 003°55'0 0.1
2017-Jun-14 21:14N 52°25' E 003°55'0 0.3
2017-Jun-14 20:59N 52°25' E 003°55'0 0.1
2017-Jun-14 20:29N 52°25' E 003°55'0 0.0
2017-Jun-14 19:32N 52°25' E 003°55'0 0.0
2017-Jun-14 19:23N 52°25' E 003°55'0 0.0
2017-Jun-14 18:53N 52°25' E 003°55'0 0.0
2017-Jun-14 18:29N 52°25' E 003°55'0 0.0
2017-Jun-14 17:53N 52°25' E 003°55'0 0.0
2017-Jun-14 17:29N 52°25' E 003°55'0 0.1
2017-Jun-14 16:59N 52°25' E 003°55'0 0.3
2017-Jun-14 16:29N 52°25' E 003°55'0 0.3
2017-Jun-14 15:59N 52°25' E 003°55'0 0.0
2017-Jun-14 15:29N 52°25' E 003°55'0 0.0
2017-Jun-14 14:59N 52°25' E 003°55'0 0.0
2017-Jun-14 13:59N 52°25' E 003°55'0 0.0
2017-Jun-14 13:29N 52°25' E 003°55'0 0.0
2017-Jun-14 12:59N 52°25' E 003°55'0 0.0
2017-Jun-14 12:29N 52°25' E 003°55'0 0.0
2017-Jun-14 11:59N 52°25' E 003°55'0 0.0
2017-Jun-14 11:26N 52°25' E 003°55'0 0.0
2017-Jun-14 10:59N 52°25' E 003°55'0 0.0
2017-Jun-14 10:29N 52°25' E 003°55'0 0.0
2017-Jun-14 09:59N 52°25' E 003°55'0 0.1
2017-Jun-14 09:29N 52°25' E 003°55'0 0.1
2017-Jun-14 08:02N 52°25' E 003°55'0 0.1
2017-Jun-14 07:59N 52°25' E 003°55'0 0.0
2017-Jun-14 07:29N 52°25' E 003°55'0 0.0
2017-Jun-14 06:56N 52°25' E 003°55'0 0.0
2017-Jun-14 06:14N 52°25' E 003°55'0 0.0
2017-Jun-14 05:59N 52°25' E 003°55'0 0.0
2017-Jun-14 05:29N 52°25' E 003°55'0 0.0
2017-Jun-14 04:59N 52°25' E 003°55'0 0.0
2017-Jun-14 04:11N 52°25' E 003°55'0 0.0
2017-Jun-14 03:59N 52°25' E 003°55'0 0.1
2017-Jun-14 03:26N 52°25' E 003°55'0 0.2
2017-Jun-14 02:59N 52°25' E 003°55'0 0.1
2017-Jun-14 02:20N 52°25' E 003°55'0 0.0
2017-Jun-14 01:59N 52°25' E 003°55'0 0.0
2017-Jun-14 01:26N 52°25' E 003°55'0 0.0
2017-Jun-14 00:53N 52°25' E 003°55'0 0.0
2017-Jun-14 00:14N 52°25' E 003°55'0 0.0
2017-Jun-13 23:59N 52°25' E 003°55'0 0.0
2017-Jun-13 23:29N 52°25' E 003°55'0 0.0
2017-Jun-13 22:59N 52°25' E 003°55'0 0.0
2017-Jun-13 22:29N 52°25' E 003°55'0 0.1
2017-Jun-13 21:56N 52°25' E 003°55'0 0.1
2017-Jun-13 21:23N 52°25' E 003°55'0 0.1
2017-Jun-13 20:53N 52°25' E 003°55'0 0.1
2017-Jun-13 20:29N 52°25' E 003°55'0 0.1
2017-Jun-13 19:59N 52°25' E 003°55'0 0.0
2017-Jun-13 19:29N 52°25' E 003°55'0 0.0
2017-Jun-13 18:53N 52°25' E 003°55'0 0.0
2017-Jun-13 18:29N 52°25' E 003°55'0 0.0
2017-Jun-13 17:59N 52°25' E 003°55'0 0.0
2017-Jun-13 17:26N 52°25' E 003°55'0 0.0
2017-Jun-13 16:59N 52°25' E 003°55'0 0.0
2017-Jun-13 16:29N 52°25' E 003°55'0 0.1
2017-Jun-13 15:56N 52°25' E 003°55'0 0.1
2017-Jun-13 15:29N 52°25' E 003°55'0 0.1
2017-Jun-13 14:59N 52°25' E 003°55'0 0.1
2017-Jun-13 14:26N 52°25' E 003°55'0 0.1
2017-Jun-13 13:29N 52°25' E 003°55'0 0.0
2017-Jun-13 12:41N 52°25' E 003°55'0 0.0
2017-Jun-13 12:29N 52°25' E 003°55'0 0.0
2017-Jun-13 11:59N 52°25' E 003°55'0 0.0
2017-Jun-13 10:44N 52°25' E 003°55'0 0.1
2017-Jun-13 10:14N 52°25' E 003°55'0 0.2
2017-Jun-13 09:59N 52°25' E 003°55'14 8.9
2017-Jun-13 08:22N 52°23' E 003°32'512.4
2017-Jun-13 07:59N 52°19' E 003°27'612.7
2017-Jun-13 07:29N 52°15' E 003°19'913.0
2017-Jun-13 06:47N 52°09' E 003°07'613.6
2017-Jun-13 06:18N 52°04' E 003°01'613.6
2017-Jun-13 05:50N 51°59' E 002°54'514.0
2017-Jun-13 05:28N 51°55' E 002°49'714.2
2017-Jun-13 04:59N 51°50' E 002°42'714.3
2017-Jun-13 04:31N 51°45' E 002°35'714.4
2017-Jun-13 04:00N 51°39' E 002°28'714.4
2017-Jun-13 03:31N 51°33' E 002°21'714.5
2017-Jun-13 03:01N 51°28' E 002°14'714.4
2017-Jun-13 02:31N 51°21' E 002°09'714.3
2017-Jun-13 02:01N 51°14' E 002°05'714.7
2017-Jun-13 01:30N 51°10' E 001°55'815.0
2017-Jun-13 01:01N 51°06' E 001°45'714.9
2017-Jun-13 00:30N 51°01' E 001°36'714.4
2017-Jun-13 00:00N 50°56' E 001°28'713.4
2017-Jun-12 23:31N 50°49' E 001°25'713.2
2017-Jun-12 22:58N 50°43' E 001°21'613.2
2017-Jun-12 22:29N 50°38' E 001°14'3213.1
2017-Jun-12 20:03N 50°24' E 000°29'112.8
2017-Jun-12 20:00N 50°24' E 000°28'1012.5
2017-Jun-12 19:12N 50°21' E 000°13'212.1
2017-Jun-12 19:00N 50°20' E 000°10'612.0
2017-Jun-12 18:31N 50°19' E 000°01'611.8
2017-Jun-12 18:00N 50°17' W 000°08'611.5
2017-Jun-12 17:30N 50°16' W 000°17'611.1
2017-Jun-12 17:00N 50°14' W 000°25'510.8
2017-Jun-12 16:30N 50°14' W 000°34'610.7
2017-Jun-12 15:58N 50°13' W 000°43'510.4
2017-Jun-12 15:30N 50°11' W 000°50'510.6
2017-Jun-12 15:00N 50°10' W 000°58'510.8
2017-Jun-12 14:30N 50°08' W 001°05'1111.3
2017-Jun-12 13:30N 50°05' W 001°23'612.3
2017-Jun-12 13:00N 50°03' W 001°32'613.0
2017-Jun-12 12:30N 50°01' W 001°41'713.8
2017-Jun-12 12:00N 49°60' W 001°52'714.5
2017-Jun-12 11:31N 49°58' W 002°03'2214.9
2017-Jun-12 10:04N 49°53' W 002°35'614.9
2017-Jun-12 09:39N 49°51' W 002°44'214.8
2017-Jun-12 09:30N 49°50' W 002°48'1614.5
2017-Jun-12 08:24N 49°43' W 003°09'614.3
2017-Jun-12 08:00N 49°40' W 003°17'8913.5
2017-Jun-12 01:23N 48°56' W 005°16'410.9
2017-Jun-12 01:00N 48°54' W 005°21'510.7
2017-Jun-12 00:29N 48°51' W 005°29'  

Dump ship's entire track history